sensor_id;sensor_type;location;lat;lon;timestamp;temperature;humidity
67890;DHT22;54685;52.082;5.426;2024-02-16T00:00:35;11.60;99.90
67890;DHT22;54685;52.082;5.426;2024-02-16T00:03:03;11.60;99.90
67890;DHT22;54685;52.082;5.426;2024-02-16T00:05:31;11.60;99.90
67890;DHT22;54685;52.082;5.426;2024-02-16T00:07:58;11.60;99.90
67890;DHT22;54685;52.082;5.426;2024-02-16T00:10:24;11.60;99.90
67890;DHT22;54685;52.082;5.426;2024-02-16T00:12:51;11.60;99.90
67890;DHT22;54685;52.082;5.426;2024-02-16T00:15:18;11.50;99.90
67890;DHT22;54685;52.082;5.426;2024-02-16T00:17:45;11.50;99.90
67890;DHT22;54685;52.082;5.426;2024-02-16T00:20:13;11.50;99.90
67890;DHT22;54685;52.082;5.426;2024-02-16T00:22:40;11.50;99.90
67890;DHT22;54685;52.082;5.426;2024-02-16T00:25:08;11.50;99.90
67890;DHT22;54685;52.082;5.426;2024-02-16T00:27:34;11.40;99.90
67890;DHT22;54685;52.082;5.426;2024-02-16T00:30:01;11.50;99.90
67890;DHT22;54685;52.082;5.426;2024-02-16T00:32:29;11.50;99.90
67890;DHT22;54685;52.082;5.426;2024-02-16T00:34:57;11.50;99.90
67890;DHT22;54685;52.082;5.426;2024-02-16T00:37:24;11.50;99.90
67890;DHT22;54685;52.082;5.426;2024-02-16T00:39:51;11.50;99.90
67890;DHT22;54685;52.082;5.426;2024-02-16T00:42:21;11.50;99.90
67890;DHT22;54685;52.082;5.426;2024-02-16T00:44:50;11.50;99.90
67890;DHT22;54685;52.082;5.426;2024-02-16T00:47:17;11.50;99.90
67890;DHT22;54685;52.082;5.426;2024-02-16T00:49:44;11.50;99.90
67890;DHT22;54685;52.082;5.426;2024-02-16T00:52:11;11.50;99.90
67890;DHT22;54685;52.082;5.426;2024-02-16T00:54:37;11.50;99.90
67890;DHT22;54685;52.082;5.426;2024-02-16T00:57:04;11.50;99.90
67890;DHT22;54685;52.082;5.426;2024-02-16T00:59:31;11.50;99.90
67890;DHT22;54685;52.082;5.426;2024-02-16T01:01:58;11.50;99.90
67890;DHT22;54685;52.082;5.426;2024-02-16T01:04:25;11.40;99.90
67890;DHT22;54685;52.082;5.426;2024-02-16T01:06:52;11.50;99.90
67890;DHT22;54685;52.082;5.426;2024-02-16T01:09:19;11.40;99.90
67890;DHT22;54685;52.082;5.426;2024-02-16T01:11:46;11.40;99.90
67890;DHT22;54685;52.082;5.426;2024-02-16T01:14:16;11.40;99.90
67890;DHT22;54685;52.082;5.426;2024-02-16T01:16:42;11.30;99.90
67890;DHT22;54685;52.082;5.426;2024-02-16T01:19:09;11.30;99.90
67890;DHT22;54685;52.082;5.426;2024-02-16T01:21:37;11.30;99.90
67890;DHT22;54685;52.082;5.426;2024-02-16T01:24:05;11.30;99.90
67890;DHT22;54685;52.082;5.426;2024-02-16T01:26:32;11.30;99.90
67890;DHT22;54685;52.082;5.426;2024-02-16T01:28:59;11.30;99.90
67890;DHT22;54685;52.082;5.426;2024-02-16T01:31:27;11.30;99.90
67890;DHT22;54685;52.082;5.426;2024-02-16T01:33:53;11.30;99.90
67890;DHT22;54685;52.082;5.426;2024-02-16T01:36:20;11.30;99.90
67890;DHT22;54685;52.082;5.426;2024-02-16T01:38:47;11.20;99.90
67890;DHT22;54685;52.082;5.426;2024-02-16T01:41:14;11.20;99.90
67890;DHT22;54685;52.082;5.426;2024-02-16T01:43:42;11.20;99.90
67890;DHT22;54685;52.082;5.426;2024-02-16T01:46:09;11.10;99.90
67890;DHT22;54685;52.082;5.426;2024-02-16T01:48:38;11.10;99.90
67890;DHT22;54685;52.082;5.426;2024-02-16T01:51:09;11.20;99.90
67890;DHT22;54685;52.082;5.426;2024-02-16T01:53:37;11.20;99.90
67890;DHT22;54685;52.082;5.426;2024-02-16T01:56:05;11.20;99.90
67890;DHT22;54685;52.082;5.426;2024-02-16T01:58:33;11.20;99.90
67890;DHT22;54685;52.082;5.426;2024-02-16T02:01:00;11.20;99.90
67890;DHT22;54685;52.082;5.426;2024-02-16T02:03:27;11.20;99.90
67890;DHT22;54685;52.082;5.426;2024-02-16T02:05:55;11.20;99.90
67890;DHT22;54685;52.082;5.426;2024-02-16T02:08:24;11.20;99.90
67890;DHT22;54685;52.082;5.426;2024-02-16T02:10:52;11.20;99.90
67890;DHT22;54685;52.082;5.426;2024-02-16T02:13:19;11.20;99.90
67890;DHT22;54685;52.082;5.426;2024-02-16T02:15:48;11.20;99.90
67890;DHT22;54685;52.082;5.426;2024-02-16T02:18:15;11.20;99.90
67890;DHT22;54685;52.082;5.426;2024-02-16T02:20:42;11.20;99.90
67890;DHT22;54685;52.082;5.426;2024-02-16T02:23:09;11.20;99.90
67890;DHT22;54685;52.082;5.426;2024-02-16T02:25:36;11.30;99.90
67890;DHT22;54685;52.082;5.426;2024-02-16T02:28:03;11.30;99.90
67890;DHT22;54685;52.082;5.426;2024-02-16T02:30:30;11.40;99.90
67890;DHT22;54685;52.082;5.426;2024-02-16T02:32:57;11.40;99.90
67890;DHT22;54685;52.082;5.426;2024-02-16T02:35:23;11.40;99.90
67890;DHT22;54685;52.082;5.426;2024-02-16T02:37:50;11.40;99.90
67890;DHT22;54685;52.082;5.426;2024-02-16T02:40:17;11.40;99.90
67890;DHT22;54685;52.082;5.426;2024-02-16T02:42:44;11.40;99.90
67890;DHT22;54685;52.082;5.426;2024-02-16T02:45:11;11.30;99.90
67890;DHT22;54685;52.082;5.426;2024-02-16T02:47:38;11.40;99.90
67890;DHT22;54685;52.082;5.426;2024-02-16T02:50:05;11.30;99.90
67890;DHT22;54685;52.082;5.426;2024-02-16T02:52:32;11.30;99.90
67890;DHT22;54685;52.082;5.426;2024-02-16T02:55:00;11.30;99.90
67890;DHT22;54685;52.082;5.426;2024-02-16T02:57:26;11.30;99.90
67890;DHT22;54685;52.082;5.426;2024-02-16T02:59:55;11.30;99.90
67890;DHT22;54685;52.082;5.426;2024-02-16T03:02:27;11.20;99.90
67890;DHT22;54685;52.082;5.426;2024-02-16T03:04:54;11.20;99.90
67890;DHT22;54685;52.082;5.426;2024-02-16T03:07:20;11.20;99.90
67890;DHT22;54685;52.082;5.426;2024-02-16T03:09:47;11.20;99.90
67890;DHT22;54685;52.082;5.426;2024-02-16T03:12:14;11.10;99.90
67890;DHT22;54685;52.082;5.426;2024-02-16T03:14:44;11.10;99.90
67890;DHT22;54685;52.082;5.426;2024-02-16T03:17:10;11.10;99.90
67890;DHT22;54685;52.082;5.426;2024-02-16T03:19:37;11.00;99.90
67890;DHT22;54685;52.082;5.426;2024-02-16T03:22:04;11.00;99.90
67890;DHT22;54685;52.082;5.426;2024-02-16T03:24:31;10.90;99.90
67890;DHT22;54685;52.082;5.426;2024-02-16T03:26:58;10.90;99.90
67890;DHT22;54685;52.082;5.426;2024-02-16T03:29:25;10.80;99.90
67890;DHT22;54685;52.082;5.426;2024-02-16T03:31:52;10.80;99.90
67890;DHT22;54685;52.082;5.426;2024-02-16T03:34:18;10.80;99.90
67890;DHT22;54685;52.082;5.426;2024-02-16T03:36:45;10.80;99.90
67890;DHT22;54685;52.082;5.426;2024-02-16T03:39:12;10.70;99.90
67890;DHT22;54685;52.082;5.426;2024-02-16T03:41:39;10.70;99.90
67890;DHT22;54685;52.082;5.426;2024-02-16T03:44:06;10.70;99.90
67890;DHT22;54685;52.082;5.426;2024-02-16T03:46:33;10.60;99.90
67890;DHT22;54685;52.082;5.426;2024-02-16T03:48:59;10.60;99.90
67890;DHT22;54685;52.082;5.426;2024-02-16T03:51:26;10.60;99.90
67890;DHT22;54685;52.082;5.426;2024-02-16T03:53:54;10.60;99.90
67890;DHT22;54685;52.082;5.426;2024-02-16T03:56:21;10.50;99.90
67890;DHT22;54685;52.082;5.426;2024-02-16T03:58:48;10.60;99.90
67890;DHT22;54685;52.082;5.426;2024-02-16T04:01:15;10.50;99.90
67890;DHT22;54685;52.082;5.426;2024-02-16T04:03:41;10.50;99.90
67890;DHT22;54685;52.082;5.426;2024-02-16T04:06:08;10.50;99.90
67890;DHT22;54685;52.082;5.426;2024-02-16T04:08:36;10.50;99.90
67890;DHT22;54685;52.082;5.426;2024-02-16T04:11:03;10.50;99.90
67890;DHT22;54685;52.082;5.426;2024-02-16T04:13:30;10.50;99.90
67890;DHT22;54685;52.082;5.426;2024-02-16T04:15:59;10.50;99.90
67890;DHT22;54685;52.082;5.426;2024-02-16T04:18:26;10.60;99.90
67890;DHT22;54685;52.082;5.426;2024-02-16T04:20:53;10.50;99.90
67890;DHT22;54685;52.082;5.426;2024-02-16T04:23:20;10.50;99.90
67890;DHT22;54685;52.082;5.426;2024-02-16T04:25:46;10.50;99.90
67890;DHT22;54685;52.082;5.426;2024-02-16T04:28:13;10.50;99.90
67890;DHT22;54685;52.082;5.426;2024-02-16T04:30:40;10.50;99.90
67890;DHT22;54685;52.082;5.426;2024-02-16T04:33:07;10.50;99.90
67890;DHT22;54685;52.082;5.426;2024-02-16T04:35:34;10.50;99.90
67890;DHT22;54685;52.082;5.426;2024-02-16T04:38:01;10.40;99.90
67890;DHT22;54685;52.082;5.426;2024-02-16T04:40:28;10.40;99.90
67890;DHT22;54685;52.082;5.426;2024-02-16T04:42:54;10.40;99.90
67890;DHT22;54685;52.082;5.426;2024-02-16T04:45:21;10.50;99.90
67890;DHT22;54685;52.082;5.426;2024-02-16T04:47:48;10.40;99.90
67890;DHT22;54685;52.082;5.426;2024-02-16T04:50:15;10.40;99.90
67890;DHT22;54685;52.082;5.426;2024-02-16T04:52:42;10.50;99.90
67890;DHT22;54685;52.082;5.426;2024-02-16T04:55:10;10.60;99.90
67890;DHT22;54685;52.082;5.426;2024-02-16T04:57:37;10.60;99.90
67890;DHT22;54685;52.082;5.426;2024-02-16T05:00:04;10.60;99.90
67890;DHT22;54685;52.082;5.426;2024-02-16T05:02:31;10.60;99.90
67890;DHT22;54685;52.082;5.426;2024-02-16T05:04:58;10.60;99.90
67890;DHT22;54685;52.082;5.426;2024-02-16T05:07:29;10.70;99.90
67890;DHT22;54685;52.082;5.426;2024-02-16T05:09:58;10.70;99.90
67890;DHT22;54685;52.082;5.426;2024-02-16T05:12:25;10.60;99.90
67890;DHT22;54685;52.082;5.426;2024-02-16T05:14:53;10.60;99.90
67890;DHT22;54685;52.082;5.426;2024-02-16T05:17:20;10.60;99.90
67890;DHT22;54685;52.082;5.426;2024-02-16T05:19:49;10.60;99.90
67890;DHT22;54685;52.082;5.426;2024-02-16T05:22:16;10.60;99.90
67890;DHT22;54685;52.082;5.426;2024-02-16T05:24:45;10.60;99.90
67890;DHT22;54685;52.082;5.426;2024-02-16T05:27:12;10.60;99.90
67890;DHT22;54685;52.082;5.426;2024-02-16T05:29:39;10.60;99.90
67890;DHT22;54685;52.082;5.426;2024-02-16T05:32:06;10.60;99.90
67890;DHT22;54685;52.082;5.426;2024-02-16T05:34:33;10.60;99.90
67890;DHT22;54685;52.082;5.426;2024-02-16T05:37:05;10.60;99.90
67890;DHT22;54685;52.082;5.426;2024-02-16T05:39:38;10.60;99.90
67890;DHT22;54685;52.082;5.426;2024-02-16T05:42:20;10.70;99.90
67890;DHT22;54685;52.082;5.426;2024-02-16T05:44:50;10.60;99.90
67890;DHT22;54685;52.082;5.426;2024-02-16T05:47:18;10.80;99.90
67890;DHT22;54685;52.082;5.426;2024-02-16T05:49:45;10.80;99.90
67890;DHT22;54685;52.082;5.426;2024-02-16T05:52:13;10.80;99.90
67890;DHT22;54685;52.082;5.426;2024-02-16T05:54:47;10.80;99.90
67890;DHT22;54685;52.082;5.426;2024-02-16T05:57:16;10.80;99.90
67890;DHT22;54685;52.082;5.426;2024-02-16T05:59:43;10.80;99.90
67890;DHT22;54685;52.082;5.426;2024-02-16T06:02:12;10.80;99.90
67890;DHT22;54685;52.082;5.426;2024-02-16T06:04:39;10.80;99.90
67890;DHT22;54685;52.082;5.426;2024-02-16T06:07:07;10.80;99.90
67890;DHT22;54685;52.082;5.426;2024-02-16T06:09:34;10.80;99.90
67890;DHT22;54685;52.082;5.426;2024-02-16T06:12:03;10.80;99.90
67890;DHT22;54685;52.082;5.426;2024-02-16T06:14:31;10.80;99.90
67890;DHT22;54685;52.082;5.426;2024-02-16T06:16:58;10.80;99.90
67890;DHT22;54685;52.082;5.426;2024-02-16T06:19:26;10.80;99.90
67890;DHT22;54685;52.082;5.426;2024-02-16T06:21:54;10.80;99.90
67890;DHT22;54685;52.082;5.426;2024-02-16T06:24:22;10.80;99.90
67890;DHT22;54685;52.082;5.426;2024-02-16T06:26:51;10.80;99.90
67890;DHT22;54685;52.082;5.426;2024-02-16T06:29:23;10.90;99.90
67890;DHT22;54685;52.082;5.426;2024-02-16T06:31:50;10.90;99.90
67890;DHT22;54685;52.082;5.426;2024-02-16T06:34:18;10.90;99.90
67890;DHT22;54685;52.082;5.426;2024-02-16T06:36:45;11.00;99.90
67890;DHT22;54685;52.082;5.426;2024-02-16T06:39:12;10.90;99.90
67890;DHT22;54685;52.082;5.426;2024-02-16T06:41:43;10.90;99.90
67890;DHT22;54685;52.082;5.426;2024-02-16T06:44:11;10.80;99.90
67890;DHT22;54685;52.082;5.426;2024-02-16T06:46:38;10.80;99.90
67890;DHT22;54685;52.082;5.426;2024-02-16T06:49:05;10.70;99.90
67890;DHT22;54685;52.082;5.426;2024-02-16T06:51:32;10.80;99.90
67890;DHT22;54685;52.082;5.426;2024-02-16T06:53:59;10.80;99.90
67890;DHT22;54685;52.082;5.426;2024-02-16T06:56:26;10.80;99.90
67890;DHT22;54685;52.082;5.426;2024-02-16T06:58:53;10.70;99.90
67890;DHT22;54685;52.082;5.426;2024-02-16T07:01:20;10.70;99.90
67890;DHT22;54685;52.082;5.426;2024-02-16T07:03:47;10.70;99.90
67890;DHT22;54685;52.082;5.426;2024-02-16T07:06:18;10.70;99.90
67890;DHT22;54685;52.082;5.426;2024-02-16T07:08:44;10.60;99.90
67890;DHT22;54685;52.082;5.426;2024-02-16T07:11:12;10.60;99.90
67890;DHT22;54685;52.082;5.426;2024-02-16T07:13:43;10.60;99.90
67890;DHT22;54685;52.082;5.426;2024-02-16T07:16:10;10.60;99.90
67890;DHT22;54685;52.082;5.426;2024-02-16T07:18:38;10.60;99.90
67890;DHT22;54685;52.082;5.426;2024-02-16T07:21:05;10.70;99.90
67890;DHT22;54685;52.082;5.426;2024-02-16T07:23:31;10.70;99.90
67890;DHT22;54685;52.082;5.426;2024-02-16T07:25:58;10.70;99.90
67890;DHT22;54685;52.082;5.426;2024-02-16T07:28:27;10.70;99.90
67890;DHT22;54685;52.082;5.426;2024-02-16T07:30:54;10.60;99.90
67890;DHT22;54685;52.082;5.426;2024-02-16T07:33:22;10.70;99.90
67890;DHT22;54685;52.082;5.426;2024-02-16T07:35:51;10.70;99.90
67890;DHT22;54685;52.082;5.426;2024-02-16T07:38:18;10.80;99.90
67890;DHT22;54685;52.082;5.426;2024-02-16T07:40:45;10.80;99.90
67890;DHT22;54685;52.082;5.426;2024-02-16T07:43:12;10.80;99.90
67890;DHT22;54685;52.082;5.426;2024-02-16T07:45:40;10.80;99.90
67890;DHT22;54685;52.082;5.426;2024-02-16T07:48:07;10.80;99.90
67890;DHT22;54685;52.082;5.426;2024-02-16T07:50:34;10.80;99.90
67890;DHT22;54685;52.082;5.426;2024-02-16T07:53:01;10.90;99.90
67890;DHT22;54685;52.082;5.426;2024-02-16T07:55:28;10.90;99.90
67890;DHT22;54685;52.082;5.426;2024-02-16T07:57:55;11.00;99.90
67890;DHT22;54685;52.082;5.426;2024-02-16T08:00:22;11.10;99.90
67890;DHT22;54685;52.082;5.426;2024-02-16T08:02:49;11.20;99.90
67890;DHT22;54685;52.082;5.426;2024-02-16T08:05:16;11.30;99.90
67890;DHT22;54685;52.082;5.426;2024-02-16T08:07:46;11.40;99.90
67890;DHT22;54685;52.082;5.426;2024-02-16T08:10:14;11.40;99.90
67890;DHT22;54685;52.082;5.426;2024-02-16T08:12:41;11.50;99.90
67890;DHT22;54685;52.082;5.426;2024-02-16T08:15:08;11.60;99.90
67890;DHT22;54685;52.082;5.426;2024-02-16T08:17:37;11.60;99.90
67890;DHT22;54685;52.082;5.426;2024-02-16T08:20:04;11.60;99.90
67890;DHT22;54685;52.082;5.426;2024-02-16T08:22:33;11.80;99.90
67890;DHT22;54685;52.082;5.426;2024-02-16T08:25:01;11.90;99.90
67890;DHT22;54685;52.082;5.426;2024-02-16T08:27:28;11.90;99.90
67890;DHT22;54685;52.082;5.426;2024-02-16T08:29:55;12.00;99.90
67890;DHT22;54685;52.082;5.426;2024-02-16T08:32:22;12.20;99.90
67890;DHT22;54685;52.082;5.426;2024-02-16T08:34:49;12.30;99.90
67890;DHT22;54685;52.082;5.426;2024-02-16T08:37:16;12.40;99.90
67890;DHT22;54685;52.082;5.426;2024-02-16T08:39:43;12.50;99.90
67890;DHT22;54685;52.082;5.426;2024-02-16T08:42:10;12.50;99.90
67890;DHT22;54685;52.082;5.426;2024-02-16T08:44:40;12.50;99.90
67890;DHT22;54685;52.082;5.426;2024-02-16T08:47:08;12.60;99.90
67890;DHT22;54685;52.082;5.426;2024-02-16T08:49:35;12.50;99.90
67890;DHT22;54685;52.082;5.426;2024-02-16T08:52:02;12.50;99.90
67890;DHT22;54685;52.082;5.426;2024-02-16T08:54:29;12.50;99.90
67890;DHT22;54685;52.082;5.426;2024-02-16T08:56:56;12.60;99.90
67890;DHT22;54685;52.082;5.426;2024-02-16T08:59:23;12.60;99.90
67890;DHT22;54685;52.082;5.426;2024-02-16T09:01:50;12.60;99.90
67890;DHT22;54685;52.082;5.426;2024-02-16T09:04:16;12.70;99.90
67890;DHT22;54685;52.082;5.426;2024-02-16T09:06:43;12.80;99.90
67890;DHT22;54685;52.082;5.426;2024-02-16T09:09:10;12.80;99.90
67890;DHT22;54685;52.082;5.426;2024-02-16T09:11:37;12.80;99.90
67890;DHT22;54685;52.082;5.426;2024-02-16T09:14:04;12.90;99.90
67890;DHT22;54685;52.082;5.426;2024-02-16T09:16:31;12.80;99.90
67890;DHT22;54685;52.082;5.426;2024-02-16T09:18:59;12.90;99.90
67890;DHT22;54685;52.082;5.426;2024-02-16T09:21:26;12.80;99.90
67890;DHT22;54685;52.082;5.426;2024-02-16T09:23:56;12.80;99.90
67890;DHT22;54685;52.082;5.426;2024-02-16T09:26:28;12.70;99.90
67890;DHT22;54685;52.082;5.426;2024-02-16T09:29:00;12.70;99.90
67890;DHT22;54685;52.082;5.426;2024-02-16T09:31:27;12.60;99.90
67890;DHT22;54685;52.082;5.426;2024-02-16T09:33:54;12.60;99.90
67890;DHT22;54685;52.082;5.426;2024-02-16T09:36:21;12.60;99.90
67890;DHT22;54685;52.082;5.426;2024-02-16T09:38:48;12.50;99.90
67890;DHT22;54685;52.082;5.426;2024-02-16T09:41:15;12.50;99.90
67890;DHT22;54685;52.082;5.426;2024-02-16T09:43:46;12.50;99.90
67890;DHT22;54685;52.082;5.426;2024-02-16T09:46:13;12.60;99.90
67890;DHT22;54685;52.082;5.426;2024-02-16T09:48:43;12.50;99.90
67890;DHT22;54685;52.082;5.426;2024-02-16T09:51:15;12.60;99.90
67890;DHT22;54685;52.082;5.426;2024-02-16T09:53:42;12.60;99.90
67890;DHT22;54685;52.082;5.426;2024-02-16T09:56:09;12.70;99.90
67890;DHT22;54685;52.082;5.426;2024-02-16T09:58:36;12.60;99.90
67890;DHT22;54685;52.082;5.426;2024-02-16T10:01:04;12.60;99.90
67890;DHT22;54685;52.082;5.426;2024-02-16T10:03:31;12.70;99.90
67890;DHT22;54685;52.082;5.426;2024-02-16T10:06:11;12.80;99.90
67890;DHT22;54685;52.082;5.426;2024-02-16T10:08:52;12.60;99.90
67890;DHT22;54685;52.082;5.426;2024-02-16T10:11:21;12.70;99.90
67890;DHT22;54685;52.082;5.426;2024-02-16T10:14:02;12.70;99.90
67890;DHT22;54685;52.082;5.426;2024-02-16T10:16:31;12.70;99.90
67890;DHT22;54685;52.082;5.426;2024-02-16T10:19:05;12.60;99.90
67890;DHT22;54685;52.082;5.426;2024-02-16T10:21:33;12.50;99.90
67890;DHT22;54685;52.082;5.426;2024-02-16T10:26:29;12.50;99.90
67890;DHT22;54685;52.082;5.426;2024-02-16T10:28:57;12.50;99.90
67890;DHT22;54685;52.082;5.426;2024-02-16T10:31:25;12.40;99.90
67890;DHT22;54685;52.082;5.426;2024-02-16T10:34:03;12.40;99.90
67890;DHT22;54685;52.082;5.426;2024-02-16T10:36:38;12.40;99.90
67890;DHT22;54685;52.082;5.426;2024-02-16T10:39:06;12.40;99.90
67890;DHT22;54685;52.082;5.426;2024-02-16T10:41:37;12.40;99.90
67890;DHT22;54685;52.082;5.426;2024-02-16T10:44:05;12.30;99.90
67890;DHT22;54685;52.082;5.426;2024-02-16T10:46:34;12.40;99.90
67890;DHT22;54685;52.082;5.426;2024-02-16T10:49:03;12.40;99.90
67890;DHT22;54685;52.082;5.426;2024-02-16T10:51:39;12.20;99.90
67890;DHT22;54685;52.082;5.426;2024-02-16T10:54:07;12.30;99.90
67890;DHT22;54685;52.082;5.426;2024-02-16T10:56:35;12.10;99.90
67890;DHT22;54685;52.082;5.426;2024-02-16T10:59:11;12.00;99.90
67890;DHT22;54685;52.082;5.426;2024-02-16T11:01:43;12.00;99.90
67890;DHT22;54685;52.082;5.426;2024-02-16T11:04:14;12.00;99.90
67890;DHT22;54685;52.082;5.426;2024-02-16T11:06:55;11.90;99.90
67890;DHT22;54685;52.082;5.426;2024-02-16T11:09:27;11.90;99.90
67890;DHT22;54685;52.082;5.426;2024-02-16T11:11:58;11.90;99.90
67890;DHT22;54685;52.082;5.426;2024-02-16T11:14:37;11.90;99.90
67890;DHT22;54685;52.082;5.426;2024-02-16T11:17:08;12.00;99.90
67890;DHT22;54685;52.082;5.426;2024-02-16T11:19:45;11.90;99.90
67890;DHT22;54685;52.082;5.426;2024-02-16T11:22:17;11.90;99.90
67890;DHT22;54685;52.082;5.426;2024-02-16T11:24:50;11.80;99.90
67890;DHT22;54685;52.082;5.426;2024-02-16T11:27:23;11.80;99.90
67890;DHT22;54685;52.082;5.426;2024-02-16T11:29:50;11.90;99.90
67890;DHT22;54685;52.082;5.426;2024-02-16T11:32:20;11.90;99.90
67890;DHT22;54685;52.082;5.426;2024-02-16T11:34:47;11.90;99.90
67890;DHT22;54685;52.082;5.426;2024-02-16T11:37:16;11.90;99.90
67890;DHT22;54685;52.082;5.426;2024-02-16T11:39:43;11.80;99.90
67890;DHT22;54685;52.082;5.426;2024-02-16T11:42:13;11.90;99.90
67890;DHT22;54685;52.082;5.426;2024-02-16T11:44:52;11.90;99.90
67890;DHT22;54685;52.082;5.426;2024-02-16T11:47:20;11.80;99.90
67890;DHT22;54685;52.082;5.426;2024-02-16T11:50:08;11.90;99.90
67890;DHT22;54685;52.082;5.426;2024-02-16T11:52:39;11.80;99.90
67890;DHT22;54685;52.082;5.426;2024-02-16T11:55:08;11.80;99.90
67890;DHT22;54685;52.082;5.426;2024-02-16T11:57:36;11.90;99.90
67890;DHT22;54685;52.082;5.426;2024-02-16T12:00:04;11.90;99.90
67890;DHT22;54685;52.082;5.426;2024-02-16T12:02:35;12.00;99.90
67890;DHT22;54685;52.082;5.426;2024-02-16T12:05:03;11.90;99.90
67890;DHT22;54685;52.082;5.426;2024-02-16T12:07:31;11.90;99.90
67890;DHT22;54685;52.082;5.426;2024-02-16T12:10:01;11.80;99.90
67890;DHT22;54685;52.082;5.426;2024-02-16T12:12:28;11.80;99.90
67890;DHT22;54685;52.082;5.426;2024-02-16T12:14:55;11.80;99.90
67890;DHT22;54685;52.082;5.426;2024-02-16T12:17:23;11.80;99.90
67890;DHT22;54685;52.082;5.426;2024-02-16T12:19:51;11.80;99.90
67890;DHT22;54685;52.082;5.426;2024-02-16T12:22:19;11.80;99.90
67890;DHT22;54685;52.082;5.426;2024-02-16T12:24:50;11.80;99.90
67890;DHT22;54685;52.082;5.426;2024-02-16T12:27:17;11.80;99.90
67890;DHT22;54685;52.082;5.426;2024-02-16T12:29:44;11.80;99.90
67890;DHT22;54685;52.082;5.426;2024-02-16T12:32:13;11.80;99.90
67890;DHT22;54685;52.082;5.426;2024-02-16T12:34:44;11.70;99.90
67890;DHT22;54685;52.082;5.426;2024-02-16T12:37:11;11.70;99.90
67890;DHT22;54685;52.082;5.426;2024-02-16T12:39:38;11.80;99.90
67890;DHT22;54685;52.082;5.426;2024-02-16T12:42:07;11.70;99.90
67890;DHT22;54685;52.082;5.426;2024-02-16T12:44:34;11.70;99.90
67890;DHT22;54685;52.082;5.426;2024-02-16T12:47:01;11.70;99.90
67890;DHT22;54685;52.082;5.426;2024-02-16T12:49:28;11.70;99.90
67890;DHT22;54685;52.082;5.426;2024-02-16T12:51:55;11.70;99.90
67890;DHT22;54685;52.082;5.426;2024-02-16T12:54:22;11.70;99.90
67890;DHT22;54685;52.082;5.426;2024-02-16T12:56:49;11.70;99.90
67890;DHT22;54685;52.082;5.426;2024-02-16T12:59:18;11.70;99.90
67890;DHT22;54685;52.082;5.426;2024-02-16T13:01:45;11.70;99.90
67890;DHT22;54685;52.082;5.426;2024-02-16T13:04:13;11.80;99.90
67890;DHT22;54685;52.082;5.426;2024-02-16T13:06:48;11.80;99.90
67890;DHT22;54685;52.082;5.426;2024-02-16T13:09:15;11.80;99.90
67890;DHT22;54685;52.082;5.426;2024-02-16T13:11:42;11.90;99.90
67890;DHT22;54685;52.082;5.426;2024-02-16T13:14:09;11.90;99.90
67890;DHT22;54685;52.082;5.426;2024-02-16T13:16:36;12.00;99.90
67890;DHT22;54685;52.082;5.426;2024-02-16T13:19:03;12.10;99.90
67890;DHT22;54685;52.082;5.426;2024-02-16T13:21:30;12.00;99.90
67890;DHT22;54685;52.082;5.426;2024-02-16T13:23:57;12.00;99.90
67890;DHT22;54685;52.082;5.426;2024-02-16T13:26:24;12.10;99.90
67890;DHT22;54685;52.082;5.426;2024-02-16T13:28:51;12.00;99.90
67890;DHT22;54685;52.082;5.426;2024-02-16T13:31:19;12.00;99.90
67890;DHT22;54685;52.082;5.426;2024-02-16T13:33:46;12.00;99.90
67890;DHT22;54685;52.082;5.426;2024-02-16T13:36:13;12.10;99.90
67890;DHT22;54685;52.082;5.426;2024-02-16T13:38:40;12.00;99.90
67890;DHT22;54685;52.082;5.426;2024-02-16T13:41:06;12.10;99.90
67890;DHT22;54685;52.082;5.426;2024-02-16T13:43:33;11.90;99.90
67890;DHT22;54685;52.082;5.426;2024-02-16T13:46:00;11.90;99.90
67890;DHT22;54685;52.082;5.426;2024-02-16T13:48:27;11.90;99.90
67890;DHT22;54685;52.082;5.426;2024-02-16T13:50:56;12.00;99.90
67890;DHT22;54685;52.082;5.426;2024-02-16T13:53:24;12.00;99.90
67890;DHT22;54685;52.082;5.426;2024-02-16T13:55:51;12.10;99.90
67890;DHT22;54685;52.082;5.426;2024-02-16T13:58:18;12.20;99.90
67890;DHT22;54685;52.082;5.426;2024-02-16T14:00:44;12.20;99.90
67890;DHT22;54685;52.082;5.426;2024-02-16T14:03:14;12.20;99.90
67890;DHT22;54685;52.082;5.426;2024-02-16T14:05:41;12.20;99.90
67890;DHT22;54685;52.082;5.426;2024-02-16T14:08:10;12.20;99.90
67890;DHT22;54685;52.082;5.426;2024-02-16T14:10:39;12.10;99.90
67890;DHT22;54685;52.082;5.426;2024-02-16T14:13:06;12.10;99.90
67890;DHT22;54685;52.082;5.426;2024-02-16T14:15:32;12.10;99.90
67890;DHT22;54685;52.082;5.426;2024-02-16T14:18:02;12.00;99.90
67890;DHT22;54685;52.082;5.426;2024-02-16T14:20:40;11.90;99.90
67890;DHT22;54685;52.082;5.426;2024-02-16T14:23:06;11.90;99.90
67890;DHT22;54685;52.082;5.426;2024-02-16T14:25:35;11.80;99.90
67890;DHT22;54685;52.082;5.426;2024-02-16T14:28:07;11.80;99.90
67890;DHT22;54685;52.082;5.426;2024-02-16T14:30:34;11.70;99.90
67890;DHT22;54685;52.082;5.426;2024-02-16T14:33:01;11.70;99.90
67890;DHT22;54685;52.082;5.426;2024-02-16T14:35:31;11.60;99.90
67890;DHT22;54685;52.082;5.426;2024-02-16T14:38:03;11.60;99.90
67890;DHT22;54685;52.082;5.426;2024-02-16T14:40:31;11.60;99.90
67890;DHT22;54685;52.082;5.426;2024-02-16T14:43:00;11.60;99.90
67890;DHT22;54685;52.082;5.426;2024-02-16T14:45:27;11.60;99.90
67890;DHT22;54685;52.082;5.426;2024-02-16T14:47:54;11.70;99.90
67890;DHT22;54685;52.082;5.426;2024-02-16T14:50:21;11.70;99.90
67890;DHT22;54685;52.082;5.426;2024-02-16T14:52:48;11.70;99.90
67890;DHT22;54685;52.082;5.426;2024-02-16T14:55:21;11.70;99.90
67890;DHT22;54685;52.082;5.426;2024-02-16T14:57:48;11.70;99.90
67890;DHT22;54685;52.082;5.426;2024-02-16T15:00:15;11.70;99.90
67890;DHT22;54685;52.082;5.426;2024-02-16T15:02:42;11.80;99.90
67890;DHT22;54685;52.082;5.426;2024-02-16T15:05:09;11.80;99.90
67890;DHT22;54685;52.082;5.426;2024-02-16T15:07:36;11.80;99.90
67890;DHT22;54685;52.082;5.426;2024-02-16T15:10:03;11.80;99.90
67890;DHT22;54685;52.082;5.426;2024-02-16T15:12:31;11.80;99.90
67890;DHT22;54685;52.082;5.426;2024-02-16T15:14:58;11.80;99.90
67890;DHT22;54685;52.082;5.426;2024-02-16T15:17:26;11.90;99.90
67890;DHT22;54685;52.082;5.426;2024-02-16T15:19:53;11.90;99.90
67890;DHT22;54685;52.082;5.426;2024-02-16T15:22:21;11.90;99.90
67890;DHT22;54685;52.082;5.426;2024-02-16T15:24:48;11.90;99.90
67890;DHT22;54685;52.082;5.426;2024-02-16T15:27:15;11.90;99.90
67890;DHT22;54685;52.082;5.426;2024-02-16T15:29:45;11.90;99.90
67890;DHT22;54685;52.082;5.426;2024-02-16T15:32:12;11.90;99.90
67890;DHT22;54685;52.082;5.426;2024-02-16T15:34:39;11.90;99.90
67890;DHT22;54685;52.082;5.426;2024-02-16T15:37:10;11.80;99.90